sensor_id;sensor_type;location;lat;lon;timestamp;P1;durP1;ratioP1;P2;durP2;ratioP2
27899;SDS011;15243;50.726;7.080;2023-07-29T00:02:06;3.55;;;1.90;;
27899;SDS011;15243;50.726;7.080;2023-07-29T00:04:33;3.05;;;2.22;;
27899;SDS011;15243;50.726;7.080;2023-07-29T00:07:00;5.32;;;2.20;;
27899;SDS011;15243;50.726;7.080;2023-07-29T00:09:26;6.45;;;2.72;;
27899;SDS011;15243;50.726;7.080;2023-07-29T00:11:53;2.63;;;1.98;;
27899;SDS011;15243;50.726;7.080;2023-07-29T00:14:20;2.53;;;2.22;;
27899;SDS011;15243;50.726;7.080;2023-07-29T00:16:47;4.38;;;2.35;;
27899;SDS011;15243;50.726;7.080;2023-07-29T00:19:14;6.45;;;2.53;;
27899;SDS011;15243;50.726;7.080;2023-07-29T00:21:42;5.32;;;2.50;;
27899;SDS011;15243;50.726;7.080;2023-07-29T00:24:08;2.88;;;1.88;;
27899;SDS011;15243;50.726;7.080;2023-07-29T00:26:35;2.88;;;1.40;;
27899;SDS011;15243;50.726;7.080;2023-07-29T00:29:03;2.95;;;1.55;;
27899;SDS011;15243;50.726;7.080;2023-07-29T00:31:30;2.35;;;1.45;;
27899;SDS011;15243;50.726;7.080;2023-07-29T00:33:57;2.97;;;1.40;;
27899;SDS011;15243;50.726;7.080;2023-07-29T00:36:26;2.55;;;1.42;;
27899;SDS011;15243;50.726;7.080;2023-07-29T00:38:53;1.30;;;1.20;;
27899;SDS011;15243;50.726;7.080;2023-07-29T00:41:23;2.97;;;1.35;;
27899;SDS011;15243;50.726;7.080;2023-07-29T00:43:52;3.47;;;1.40;;
27899;SDS011;15243;50.726;7.080;2023-07-29T00:46:19;2.00;;;1.35;;
27899;SDS011;15243;50.726;7.080;2023-07-29T00:48:47;6.30;;;1.40;;
27899;SDS011;15243;50.726;7.080;2023-07-29T00:51:14;11.13;;;1.80;;
27899;SDS011;15243;50.726;7.080;2023-07-29T00:53:41;3.10;;;1.02;;
27899;SDS011;15243;50.726;7.080;2023-07-29T00:56:08;2.80;;;1.55;;
27899;SDS011;15243;50.726;7.080;2023-07-29T00:58:36;1.90;;;0.93;;
27899;SDS011;15243;50.726;7.080;2023-07-29T01:01:03;1.80;;;0.95;;
27899;SDS011;15243;50.726;7.080;2023-07-29T01:03:31;3.65;;;1.40;;
27899;SDS011;15243;50.726;7.080;2023-07-29T01:06:17;3.47;;;1.13;;
27899;SDS011;15243;50.726;7.080;2023-07-29T01:09:10;7.13;;;1.50;;
27899;SDS011;15243;50.726;7.080;2023-07-29T01:11:45;3.13;;;1.27;;
27899;SDS011;15243;50.726;7.080;2023-07-29T01:17:36;2.03;;;1.30;;
27899;SDS011;15243;50.726;7.080;2023-07-29T01:20:08;3.30;;;1.40;;
27899;SDS011;15243;50.726;7.080;2023-07-29T01:22:40;5.10;;;1.08;;
27899;SDS011;15243;50.726;7.080;2023-07-29T01:25:08;3.45;;;1.10;;
27899;SDS011;15243;50.726;7.080;2023-07-29T01:27:35;3.53;;;1.02;;
27899;SDS011;15243;50.726;7.080;2023-07-29T01:30:02;3.10;;;1.25;;
27899;SDS011;15243;50.726;7.080;2023-07-29T01:32:39;3.22;;;1.20;;
27899;SDS011;15243;50.726;7.080;2023-07-29T01:35:21;3.72;;;1.65;;
27899;SDS011;15243;50.726;7.080;2023-07-29T01:38:01;1.50;;;1.10;;
27899;SDS011;15243;50.726;7.080;2023-07-29T01:40:33;1.98;;;1.02;;
27899;SDS011;15243;50.726;7.080;2023-07-29T01:43:00;5.55;;;1.15;;
27899;SDS011;15243;50.726;7.080;2023-07-29T01:45:28;1.60;;;1.00;;
27899;SDS011;15243;50.726;7.080;2023-07-29T01:47:58;1.60;;;1.00;;
27899;SDS011;15243;50.726;7.080;2023-07-29T01:50:25;3.13;;;1.67;;
27899;SDS011;15243;50.726;7.080;2023-07-29T01:52:52;1.35;;;0.95;;
27899;SDS011;15243;50.726;7.080;2023-07-29T01:55:18;1.20;;;1.10;;
27899;SDS011;15243;50.726;7.080;2023-07-29T01:57:46;1.25;;;0.90;;
27899;SDS011;15243;50.726;7.080;2023-07-29T02:00:13;1.65;;;0.85;;
27899;SDS011;15243;50.726;7.080;2023-07-29T02:02:40;2.72;;;1.23;;
27899;SDS011;15243;50.726;7.080;2023-07-29T02:05:07;2.80;;;1.00;;
27899;SDS011;15243;50.726;7.080;2023-07-29T02:07:34;1.75;;;1.10;;
27899;SDS011;15243;50.726;7.080;2023-07-29T02:10:02;4.20;;;1.45;;
27899;SDS011;15243;50.726;7.080;2023-07-29T02:12:29;2.63;;;0.93;;
27899;SDS011;15243;50.726;7.080;2023-07-29T02:14:56;2.95;;;1.20;;
27899;SDS011;15243;50.726;7.080;2023-07-29T02:17:23;1.38;;;1.25;;
27899;SDS011;15243;50.726;7.080;2023-07-29T02:19:50;2.78;;;1.20;;
27899;SDS011;15243;50.726;7.080;2023-07-29T02:22:17;3.47;;;1.38;;
27899;SDS011;15243;50.726;7.080;2023-07-29T02:24:44;2.22;;;1.17;;
27899;SDS011;15243;50.726;7.080;2023-07-29T02:27:11;2.40;;;1.23;;
27899;SDS011;15243;50.726;7.080;2023-07-29T02:29:38;1.58;;;1.20;;
27899;SDS011;15243;50.726;7.080;2023-07-29T02:32:05;4.13;;;1.40;;
27899;SDS011;15243;50.726;7.080;2023-07-29T02:34:32;5.45;;;1.40;;
27899;SDS011;15243;50.726;7.080;2023-07-29T02:36:59;3.75;;;1.52;;
27899;SDS011;15243;50.726;7.080;2023-07-29T02:39:26;3.65;;;1.40;;
27899;SDS011;15243;50.726;7.080;2023-07-29T02:41:53;1.73;;;1.25;;
27899;SDS011;15243;50.726;7.080;2023-07-29T02:44:22;4.05;;;1.40;;
27899;SDS011;15243;50.726;7.080;2023-07-29T02:46:49;5.50;;;1.20;;
27899;SDS011;15243;50.726;7.080;2023-07-29T02:49:18;2.50;;;1.17;;
27899;SDS011;15243;50.726;7.080;2023-07-29T02:51:45;2.22;;;1.30;;
27899;SDS011;15243;50.726;7.080;2023-07-29T02:54:12;3.95;;;1.30;;
27899;SDS011;15243;50.726;7.080;2023-07-29T02:56:39;1.48;;;1.30;;
27899;SDS011;15243;50.726;7.080;2023-07-29T02:59:06;2.97;;;1.30;;
27899;SDS011;15243;50.726;7.080;2023-07-29T03:01:34;2.63;;;1.38;;
27899;SDS011;15243;50.726;7.080;2023-07-29T03:04:01;2.78;;;0.80;;
27899;SDS011;15243;50.726;7.080;2023-07-29T03:06:28;2.28;;;1.10;;
27899;SDS011;15243;50.726;7.080;2023-07-29T03:08:54;1.00;;;0.70;;
27899;SDS011;15243;50.726;7.080;2023-07-29T03:11:22;0.98;;;0.55;;
27899;SDS011;15243;50.726;7.080;2023-07-29T03:13:48;1.33;;;0.70;;
27899;SDS011;15243;50.726;7.080;2023-07-29T03:16:16;4.63;;;1.23;;
27899;SDS011;15243;50.726;7.080;2023-07-29T03:18:44;1.85;;;0.80;;
27899;SDS011;15243;50.726;7.080;2023-07-29T03:21:11;2.50;;;1.00;;
27899;SDS011;15243;50.726;7.080;2023-07-29T03:23:38;1.40;;;1.00;;
27899;SDS011;15243;50.726;7.080;2023-07-29T03:26:06;5.00;;;1.60;;
27899;SDS011;15243;50.726;7.080;2023-07-29T03:28:38;2.53;;;1.20;;
27899;SDS011;15243;50.726;7.080;2023-07-29T03:31:06;4.75;;;1.17;;
27899;SDS011;15243;50.726;7.080;2023-07-29T03:33:34;3.00;;;1.20;;
27899;SDS011;15243;50.726;7.080;2023-07-29T03:36:01;2.85;;;1.10;;
27899;SDS011;15243;50.726;7.080;2023-07-29T03:38:28;1.92;;;1.20;;
27899;SDS011;15243;50.726;7.080;2023-07-29T03:40:55;4.53;;;0.93;;
27899;SDS011;15243;50.726;7.080;2023-07-29T03:43:24;4.65;;;1.05;;
27899;SDS011;15243;50.726;7.080;2023-07-29T03:45:51;3.20;;;0.90;;
27899;SDS011;15243;50.726;7.080;2023-07-29T03:48:18;3.03;;;0.95;;
27899;SDS011;15243;50.726;7.080;2023-07-29T03:50:45;1.70;;;0.90;;
27899;SDS011;15243;50.726;7.080;2023-07-29T03:53:12;4.57;;;0.70;;
27899;SDS011;15243;50.726;7.080;2023-07-29T03:55:40;5.57;;;1.10;;
27899;SDS011;15243;50.726;7.080;2023-07-29T03:58:07;5.97;;;1.15;;
27899;SDS011;15243;50.726;7.080;2023-07-29T04:00:34;4.18;;;1.17;;
27899;SDS011;15243;50.726;7.080;2023-07-29T04:03:02;1.98;;;1.00;;
27899;SDS011;15243;50.726;7.080;2023-07-29T04:05:30;1.92;;;1.05;;
27899;SDS011;15243;50.726;7.080;2023-07-29T04:07:57;4.70;;;1.20;;
27899;SDS011;15243;50.726;7.080;2023-07-29T04:10:24;3.78;;;1.08;;
27899;SDS011;15243;50.726;7.080;2023-07-29T04:12:52;1.70;;;1.17;;
27899;SDS011;15243;50.726;7.080;2023-07-29T04:15:19;2.10;;;1.35;;
27899;SDS011;15243;50.726;7.080;2023-07-29T04:17:46;0.95;;;0.70;;
27899;SDS011;15243;50.726;7.080;2023-07-29T04:20:13;1.08;;;0.98;;
27899;SDS011;15243;50.726;7.080;2023-07-29T04:22:41;2.63;;;1.10;;
27899;SDS011;15243;50.726;7.080;2023-07-29T04:25:08;1.10;;;0.80;;
27899;SDS011;15243;50.726;7.080;2023-07-29T04:27:35;2.70;;;1.25;;
27899;SDS011;15243;50.726;7.080;2023-07-29T04:30:01;3.03;;;1.42;;
27899;SDS011;15243;50.726;7.080;2023-07-29T04:32:28;4.18;;;1.30;;
27899;SDS011;15243;50.726;7.080;2023-07-29T04:34:58;2.40;;;1.05;;
27899;SDS011;15243;50.726;7.080;2023-07-29T04:37:25;2.28;;;1.27;;
27899;SDS011;15243;50.726;7.080;2023-07-29T04:39:52;1.48;;;1.08;;
27899;SDS011;15243;50.726;7.080;2023-07-29T04:42:19;7.75;;;1.67;;
27899;SDS011;15243;50.726;7.080;2023-07-29T04:44:46;2.00;;;1.40;;
27899;SDS011;15243;50.726;7.080;2023-07-29T04:47:13;2.15;;;1.30;;
27899;SDS011;15243;50.726;7.080;2023-07-29T04:49:41;3.03;;;1.38;;
27899;SDS011;15243;50.726;7.080;2023-07-29T04:52:08;2.92;;;1.20;;
27899;SDS011;15243;50.726;7.080;2023-07-29T04:54:35;2.28;;;1.50;;
27899;SDS011;15243;50.726;7.080;2023-07-29T04:57:02;3.65;;;1.10;;
27899;SDS011;15243;50.726;7.080;2023-07-29T04:59:29;4.70;;;1.20;;
27899;SDS011;15243;50.726;7.080;2023-07-29T05:01:56;2.20;;;1.20;;
27899;SDS011;15243;50.726;7.080;2023-07-29T05:04:23;6.95;;;1.73;;
27899;SDS011;15243;50.726;7.080;2023-07-29T05:06:51;2.92;;;1.42;;
27899;SDS011;15243;50.726;7.080;2023-07-29T05:09:19;1.30;;;1.20;;
27899;SDS011;15243;50.726;7.080;2023-07-29T05:11:50;4.97;;;1.50;;
27899;SDS011;15243;50.726;7.080;2023-07-29T05:14:17;3.45;;;1.92;;
27899;SDS011;15243;50.726;7.080;2023-07-29T05:16:44;2.03;;;1.20;;
27899;SDS011;15243;50.726;7.080;2023-07-29T05:19:11;2.97;;;1.35;;
27899;SDS011;15243;50.726;7.080;2023-07-29T05:21:38;5.80;;;1.48;;
27899;SDS011;15243;50.726;7.080;2023-07-29T05:24:06;3.75;;;1.50;;
27899;SDS011;15243;50.726;7.080;2023-07-29T05:26:33;1.75;;;1.38;;
27899;SDS011;15243;50.726;7.080;2023-07-29T05:29:01;3.70;;;1.80;;
27899;SDS011;15243;50.726;7.080;2023-07-29T05:31:28;4.88;;;1.50;;
27899;SDS011;15243;50.726;7.080;2023-07-29T05:33:56;7.63;;;2.05;;
27899;SDS011;15243;50.726;7.080;2023-07-29T05:36:23;6.00;;;1.88;;
27899;SDS011;15243;50.726;7.080;2023-07-29T05:38:51;4.93;;;1.75;;
27899;SDS011;15243;50.726;7.080;2023-07-29T05:41:18;5.43;;;1.52;;
27899;SDS011;15243;50.726;7.080;2023-07-29T05:43:45;2.65;;;1.65;;
27899;SDS011;15243;50.726;7.080;2023-07-29T05:46:13;2.88;;;1.50;;
27899;SDS011;15243;50.726;7.080;2023-07-29T05:48:40;1.40;;;1.13;;
27899;SDS011;15243;50.726;7.080;2023-07-29T05:51:07;1.98;;;1.42;;
27899;SDS011;15243;50.726;7.080;2023-07-29T05:53:34;4.20;;;1.50;;
27899;SDS011;15243;50.726;7.080;2023-07-29T05:56:01;2.67;;;1.50;;
27899;SDS011;15243;50.726;7.080;2023-07-29T05:58:28;2.38;;;1.35;;
27899;SDS011;15243;50.726;7.080;2023-07-29T06:00:57;3.25;;;1.65;;
27899;SDS011;15243;50.726;7.080;2023-07-29T06:03:25;9.38;;;2.03;;
27899;SDS011;15243;50.726;7.080;2023-07-29T06:05:52;2.58;;;1.55;;
27899;SDS011;15243;50.726;7.080;2023-07-29T06:08:20;1.45;;;1.30;;
27899;SDS011;15243;50.726;7.080;2023-07-29T06:10:47;3.95;;;1.45;;
27899;SDS011;15243;50.726;7.080;2023-07-29T06:13:14;4.30;;;1.85;;
27899;SDS011;15243;50.726;7.080;2023-07-29T06:15:57;3.03;;;1.67;;
27899;SDS011;15243;50.726;7.080;2023-07-29T06:18:24;3.50;;;1.60;;
27899;SDS011;15243;50.726;7.080;2023-07-29T06:20:51;1.92;;;1.40;;
27899;SDS011;15243;50.726;7.080;2023-07-29T06:23:18;5.53;;;1.83;;
27899;SDS011;15243;50.726;7.080;2023-07-29T06:25:45;4.70;;;1.75;;
27899;SDS011;15243;50.726;7.080;2023-07-29T06:28:12;6.60;;;2.05;;
27899;SDS011;15243;50.726;7.080;2023-07-29T06:30:39;3.50;;;1.40;;
27899;SDS011;15243;50.726;7.080;2023-07-29T06:33:07;5.47;;;2.38;;
27899;SDS011;15243;50.726;7.080;2023-07-29T06:35:34;4.78;;;2.30;;
27899;SDS011;15243;50.726;7.080;2023-07-29T06:38:00;3.33;;;1.90;;
27899;SDS011;15243;50.726;7.080;2023-07-29T06:40:28;3.35;;;2.10;;
27899;SDS011;15243;50.726;7.080;2023-07-29T06:42:55;3.60;;;1.88;;
27899;SDS011;15243;50.726;7.080;2023-07-29T06:45:23;5.47;;;1.90;;
27899;SDS011;15243;50.726;7.080;2023-07-29T06:47:50;6.47;;;1.98;;
27899;SDS011;15243;50.726;7.080;2023-07-29T06:50:17;2.63;;;1.70;;
27899;SDS011;15243;50.726;7.080;2023-07-29T06:52:45;2.17;;;1.50;;
27899;SDS011;15243;50.726;7.080;2023-07-29T06:55:12;3.25;;;1.55;;
27899;SDS011;15243;50.726;7.080;2023-07-29T06:57:39;5.85;;;1.52;;
27899;SDS011;15243;50.726;7.080;2023-07-29T07:00:07;1.52;;;1.40;;
27899;SDS011;15243;50.726;7.080;2023-07-29T07:02:35;2.55;;;1.67;;
27899;SDS011;15243;50.726;7.080;2023-07-29T07:05:02;4.03;;;1.75;;
27899;SDS011;15243;50.726;7.080;2023-07-29T07:07:29;2.15;;;1.55;;
27899;SDS011;15243;50.726;7.080;2023-07-29T07:09:57;5.13;;;1.88;;
27899;SDS011;15243;50.726;7.080;2023-07-29T07:12:26;3.47;;;2.15;;
27899;SDS011;15243;50.726;7.080;2023-07-29T07:14:53;3.67;;;2.13;;
27899;SDS011;15243;50.726;7.080;2023-07-29T07:17:20;2.70;;;1.98;;
27899;SDS011;15243;50.726;7.080;2023-07-29T07:19:47;3.67;;;2.03;;
27899;SDS011;15243;50.726;7.080;2023-07-29T07:22:14;2.55;;;2.20;;
27899;SDS011;15243;50.726;7.080;2023-07-29T07:24:41;2.85;;;1.90;;
27899;SDS011;15243;50.726;7.080;2023-07-29T07:27:08;3.30;;;1.95;;
27899;SDS011;15243;50.726;7.080;2023-07-29T07:29:35;4.03;;;1.85;;
27899;SDS011;15243;50.726;7.080;2023-07-29T07:32:02;5.22;;;1.98;;
27899;SDS011;15243;50.726;7.080;2023-07-29T07:34:29;7.22;;;2.40;;
27899;SDS011;15243;50.726;7.080;2023-07-29T07:36:56;3.70;;;1.80;;
27899;SDS011;15243;50.726;7.080;2023-07-29T07:39:23;2.22;;;2.03;;
27899;SDS011;15243;50.726;7.080;2023-07-29T07:41:50;3.72;;;2.10;;
27899;SDS011;15243;50.726;7.080;2023-07-29T07:44:18;2.65;;;2.00;;
27899;SDS011;15243;50.726;7.080;2023-07-29T07:46:52;3.63;;;1.80;;
27899;SDS011;15243;50.726;7.080;2023-07-29T07:49:19;6.30;;;2.63;;
27899;SDS011;15243;50.726;7.080;2023-07-29T07:51:47;3.22;;;2.28;;
27899;SDS011;15243;50.726;7.080;2023-07-29T07:54:14;8.13;;;2.30;;
27899;SDS011;15243;50.726;7.080;2023-07-29T07:56:42;2.05;;;1.70;;
27899;SDS011;15243;50.726;7.080;2023-07-29T07:59:09;6.00;;;2.13;;
27899;SDS011;15243;50.726;7.080;2023-07-29T08:01:37;2.53;;;1.70;;
27899;SDS011;15243;50.726;7.080;2023-07-29T08:04:21;2.78;;;1.90;;
27899;SDS011;15243;50.726;7.080;2023-07-29T08:06:48;2.88;;;1.77;;
27899;SDS011;15243;50.726;7.080;2023-07-29T08:09:15;2.50;;;1.90;;
27899;SDS011;15243;50.726;7.080;2023-07-29T08:11:42;2.30;;;1.50;;
27899;SDS011;15243;50.726;7.080;2023-07-29T08:14:10;1.63;;;1.33;;
27899;SDS011;15243;50.726;7.080;2023-07-29T08:16:37;3.83;;;1.88;;
27899;SDS011;15243;50.726;7.080;2023-07-29T08:19:04;2.25;;;1.67;;
27899;SDS011;15243;50.726;7.080;2023-07-29T08:21:32;3.92;;;1.67;;
27899;SDS011;15243;50.726;7.080;2023-07-29T08:23:59;1.95;;;1.85;;
27899;SDS011;15243;50.726;7.080;2023-07-29T08:26:26;4.45;;;2.10;;
27899;SDS011;15243;50.726;7.080;2023-07-29T08:28:53;2.55;;;1.52;;
27899;SDS011;15243;50.726;7.080;2023-07-29T08:31:20;1.60;;;1.50;;
27899;SDS011;15243;50.726;7.080;2023-07-29T08:33:47;4.18;;;2.10;;
27899;SDS011;15243;50.726;7.080;2023-07-29T08:36:14;3.00;;;1.52;;
27899;SDS011;15243;50.726;7.080;2023-07-29T08:38:42;3.10;;;1.40;;
27899;SDS011;15243;50.726;7.080;2023-07-29T08:43:59;2.47;;;1.90;;
27899;SDS011;15243;50.726;7.080;2023-07-29T08:46:38;4.55;;;1.50;;
27899;SDS011;15243;50.726;7.080;2023-07-29T08:49:07;3.42;;;1.80;;
27899;SDS011;15243;50.726;7.080;2023-07-29T08:51:35;5.53;;;1.60;;
27899;SDS011;15243;50.726;7.080;2023-07-29T08:54:03;2.70;;;1.70;;
27899;SDS011;15243;50.726;7.080;2023-07-29T08:56:30;4.40;;;1.80;;
27899;SDS011;15243;50.726;7.080;2023-07-29T08:58:56;3.17;;;1.70;;
27899;SDS011;15243;50.726;7.080;2023-07-29T09:01:26;2.10;;;1.83;;
27899;SDS011;15243;50.726;7.080;2023-07-29T09:03:54;2.75;;;1.60;;
27899;SDS011;15243;50.726;7.080;2023-07-29T09:06:21;3.08;;;1.70;;
27899;SDS011;15243;50.726;7.080;2023-07-29T09:08:51;2.55;;;2.08;;
27899;SDS011;15243;50.726;7.080;2023-07-29T09:11:20;2.63;;;1.65;;
27899;SDS011;15243;50.726;7.080;2023-07-29T09:13:47;4.10;;;1.70;;
27899;SDS011;15243;50.726;7.080;2023-07-29T09:16:14;4.68;;;1.70;;
27899;SDS011;15243;50.726;7.080;2023-07-29T09:18:41;3.40;;;1.70;;
27899;SDS011;15243;50.726;7.080;2023-07-29T09:21:08;1.60;;;1.50;;
27899;SDS011;15243;50.726;7.080;2023-07-29T09:23:41;2.15;;;1.50;;
27899;SDS011;15243;50.726;7.080;2023-07-29T09:26:10;3.92;;;1.75;;
27899;SDS011;15243;50.726;7.080;2023-07-29T09:28:38;2.60;;;1.40;;
27899;SDS011;15243;50.726;7.080;2023-07-29T09:31:06;3.25;;;1.60;;
27899;SDS011;15243;50.726;7.080;2023-07-29T09:33:34;3.15;;;1.40;;
27899;SDS011;15243;50.726;7.080;2023-07-29T09:36:08;1.38;;;1.27;;
27899;SDS011;15243;50.726;7.080;2023-07-29T09:38:36;1.98;;;1.27;;
27899;SDS011;15243;50.726;7.080;2023-07-29T09:41:04;4.45;;;1.58;;
27899;SDS011;15243;50.726;7.080;2023-07-29T09:43:31;2.88;;;1.67;;
27899;SDS011;15243;50.726;7.080;2023-07-29T09:46:03;1.67;;;1.58;;
27899;SDS011;15243;50.726;7.080;2023-07-29T09:48:34;3.20;;;1.42;;
27899;SDS011;15243;50.726;7.080;2023-07-29T09:51:09;2.13;;;1.35;;
27899;SDS011;15243;50.726;7.080;2023-07-29T09:53:44;1.67;;;1.13;;
27899;SDS011;15243;50.726;7.080;2023-07-29T09:56:13;2.45;;;1.60;;
27899;SDS011;15243;50.726;7.080;2023-07-29T09:58:44;2.25;;;1.55;;
27899;SDS011;15243;50.726;7.080;2023-07-29T10:01:14;3.65;;;1.30;;
27899;SDS011;15243;50.726;7.080;2023-07-29T10:03:41;4.07;;;1.60;;
27899;SDS011;15243;50.726;7.080;2023-07-29T10:06:11;3.28;;;1.42;;
27899;SDS011;15243;50.726;7.080;2023-07-29T10:08:40;3.25;;;1.40;;
27899;SDS011;15243;50.726;7.080;2023-07-29T10:11:09;2.85;;;1.25;;
27899;SDS011;15243;50.726;7.080;2023-07-29T10:13:37;3.42;;;1.40;;
27899;SDS011;15243;50.726;7.080;2023-07-29T10:16:04;2.25;;;1.60;;
27899;SDS011;15243;50.726;7.080;2023-07-29T10:18:32;2.47;;;1.35;;
27899;SDS011;15243;50.726;7.080;2023-07-29T10:21:01;2.25;;;1.60;;
27899;SDS011;15243;50.726;7.080;2023-07-29T10:23:32;1.95;;;1.60;;
27899;SDS011;15243;50.726;7.080;2023-07-29T10:26:04;1.85;;;1.60;;
27899;SDS011;15243;50.726;7.080;2023-07-29T10:28:36;4.15;;;1.95;;
27899;SDS011;15243;50.726;7.080;2023-07-29T10:31:07;2.60;;;1.70;;
27899;SDS011;15243;50.726;7.080;2023-07-29T10:33:34;3.20;;;1.98;;
27899;SDS011;15243;50.726;7.080;2023-07-29T10:36:01;5.50;;;2.05;;
27899;SDS011;15243;50.726;7.080;2023-07-29T10:38:30;4.00;;;2.20;;
27899;SDS011;15243;50.726;7.080;2023-07-29T10:40:57;4.85;;;2.20;;
27899;SDS011;15243;50.726;7.080;2023-07-29T10:46:22;2.53;;;2.00;;
27899;SDS011;15243;50.726;7.080;2023-07-29T10:54:10;3.85;;;2.15;;
27899;SDS011;15243;50.726;7.080;2023-07-29T10:56:41;6.28;;;2.60;;
27899;SDS011;15243;50.726;7.080;2023-07-29T11:01:54;4.40;;;2.42;;
27899;SDS011;15243;50.726;7.080;2023-07-29T11:04:24;4.10;;;2.55;;
27899;SDS011;15243;50.726;7.080;2023-07-29T11:10:16;4.85;;;2.30;;
27899;SDS011;15243;50.726;7.080;2023-07-29T11:15:06;4.57;;;2.30;;
27899;SDS011;15243;50.726;7.080;2023-07-29T11:17:40;4.75;;;2.25;;
27899;SDS011;15243;50.726;7.080;2023-07-29T11:20:07;4.55;;;2.15;;
27899;SDS011;15243;50.726;7.080;2023-07-29T11:22:35;5.80;;;2.50;;
27899;SDS011;15243;50.726;7.080;2023-07-29T11:25:03;5.20;;;2.35;;
27899;SDS011;15243;50.726;7.080;2023-07-29T11:27:31;4.45;;;2.42;;
27899;SDS011;15243;50.726;7.080;2023-07-29T11:29:59;2.88;;;1.90;;
27899;SDS011;15243;50.726;7.080;2023-07-29T11:32:27;5.63;;;2.05;;
27899;SDS011;15243;50.726;7.080;2023-07-29T11:34:54;3.35;;;2.13;;
27899;SDS011;15243;50.726;7.080;2023-07-29T11:37:21;3.78;;;2.03;;
27899;SDS011;15243;50.726;7.080;2023-07-29T11:39:48;2.53;;;1.98;;
27899;SDS011;15243;50.726;7.080;2023-07-29T11:42:16;2.92;;;1.92;;
27899;SDS011;15243;50.726;7.080;2023-07-29T11:44:43;3.42;;;2.35;;
27899;SDS011;15243;50.726;7.080;2023-07-29T11:47:10;5.55;;;2.35;;
27899;SDS011;15243;50.726;7.080;2023-07-29T11:49:39;2.75;;;2.03;;
27899;SDS011;15243;50.726;7.080;2023-07-29T11:52:07;2.90;;;1.88;;
27899;SDS011;15243;50.726;7.080;2023-07-29T11:54:36;4.25;;;2.10;;
27899;SDS011;15243;50.726;7.080;2023-07-29T11:57:08;3.22;;;1.73;;
27899;SDS011;15243;50.726;7.080;2023-07-29T11:59:36;3.20;;;1.83;;
27899;SDS011;15243;50.726;7.080;2023-07-29T12:02:05;3.03;;;2.10;;
27899;SDS011;15243;50.726;7.080;2023-07-29T12:04:36;2.60;;;1.90;;
27899;SDS011;15243;50.726;7.080;2023-07-29T12:07:04;3.10;;;1.80;;
27899;SDS011;15243;50.726;7.080;2023-07-29T12:09:33;2.35;;;1.90;;
27899;SDS011;15243;50.726;7.080;2023-07-29T12:12:03;2.22;;;1.40;;
27899;SDS011;15243;50.726;7.080;2023-07-29T12:14:32;4.15;;;1.90;;
27899;SDS011;15243;50.726;7.080;2023-07-29T12:17:00;2.72;;;1.77;;
27899;SDS011;15243;50.726;7.080;2023-07-29T12:19:36;2.95;;;1.70;;
27899;SDS011;15243;50.726;7.080;2023-07-29T12:22:05;2.50;;;1.75;;
27899;SDS011;15243;50.726;7.080;2023-07-29T12:24:34;2.90;;;1.83;;
27899;SDS011;15243;50.726;7.080;2023-07-29T12:27:02;3.55;;;2.13;;
27899;SDS011;15243;50.726;7.080;2023-07-29T12:29:30;2.83;;;1.83;;
27899;SDS011;15243;50.726;7.080;2023-07-29T12:32:01;6.53;;;2.15;;
27899;SDS011;15243;50.726;7.080;2023-07-29T12:34:30;3.40;;;1.60;;
27899;SDS011;15243;50.726;7.080;2023-07-29T12:36:58;4.65;;;2.00;;
27899;SDS011;15243;50.726;7.080;2023-07-29T12:39:29;2.33;;;1.45;;
27899;SDS011;15243;50.726;7.080;2023-07-29T12:41:58;1.65;;;1.55;;
27899;SDS011;15243;50.726;7.080;2023-07-29T12:44:30;2.40;;;1.80;;
27899;SDS011;15243;50.726;7.080;2023-07-29T12:47:00;2.40;;;1.40;;
27899;SDS011;15243;50.726;7.080;2023-07-29T12:49:29;1.65;;;1.38;;
27899;SDS011;15243;50.726;7.080;2023-07-29T12:51:57;1.70;;;1.35;;
27899;SDS011;15243;50.726;7.080;2023-07-29T12:54:26;1.77;;;1.20;;
27899;SDS011;15243;50.726;7.080;2023-07-29T12:56:52;3.50;;;1.40;;
27899;SDS011;15243;50.726;7.080;2023-07-29T12:59:19;3.22;;;1.70;;
27899;SDS011;15243;50.726;7.080;2023-07-29T13:01:47;1.75;;;1.30;;
27899;SDS011;15243;50.726;7.080;2023-07-29T13:04:14;2.10;;;1.48;;
27899;SDS011;15243;50.726;7.080;2023-07-29T13:06:41;5.15;;;1.30;;
27899;SDS011;15243;50.726;7.080;2023-07-29T13:09:09;2.80;;;1.20;;
27899;SDS011;15243;50.726;7.080;2023-07-29T13:11:36;0.77;;;0.77;;
27899;SDS011;15243;50.726;7.080;2023-07-29T13:14:03;2.42;;;1.23;;
27899;SDS011;15243;50.726;7.080;2023-07-29T13:16:30;1.42;;;1.05;;
27899;SDS011;15243;50.726;7.080;2023-07-29T13:18:57;1.90;;;1.20;;
27899;SDS011;15243;50.726;7.080;2023-07-29T13:21:24;1.85;;;1.20;;
27899;SDS011;15243;50.726;7.080;2023-07-29T13:23:51;2.75;;;1.30;;
27899;SDS011;15243;50.726;7.080;2023-07-29T13:26:18;1.05;;;1.00;;
27899;SDS011;15243;50.726;7.080;2023-07-29T13:28:45;1.90;;;1.25;;
27899;SDS011;15243;50.726;7.080;2023-07-29T13:31:13;3.03;;;1.30;;
27899;SDS011;15243;50.726;7.080;2023-07-29T13:33:40;1.13;;;1.00;;
27899;SDS011;15243;50.726;7.080;2023-07-29T13:36:07;1.65;;;1.40;;
27899;SDS011;15243;50.726;7.080;2023-07-29T13:38:35;1.67;;;1.40;;
27899;SDS011;15243;50.726;7.080;2023-07-29T13:41:02;1.90;;;1.08;;
27899;SDS011;15243;50.726;7.080;2023-07-29T13:43:29;1.55;;;1.38;;
27899;SDS011;15243;50.726;7.080;2023-07-29T13:45:56;2.40;;;1.50;;
27899;SDS011;15243;50.726;7.080;2023-07-29T13:48:23;2.97;;;1.42;;
27899;SDS011;15243;50.726;7.080;2023-07-29T13:50:51;2.33;;;1.90;;
27899;SDS011;15243;50.726;7.080;2023-07-29T13:53:18;3.72;;;1.83;;
27899;SDS011;15243;50.726;7.080;2023-07-29T13:55:45;3.65;;;1.80;;
27899;SDS011;15243;50.726;7.080;2023-07-29T13:58:12;2.78;;;1.88;;
27899;SDS011;15243;50.726;7.080;2023-07-29T14:00:39;5.32;;;2.00;;
27899;SDS011;15243;50.726;7.080;2023-07-29T14:03:06;2.08;;;1.88;;
27899;SDS011;15243;50.726;7.080;2023-07-29T14:05:33;3.17;;;1.73;;
27899;SDS011;15243;50.726;7.080;2023-07-29T14:08:00;4.05;;;2.13;;
27899;SDS011;15243;50.726;7.080;2023-07-29T14:10:27;2.55;;;2.13;;
27899;SDS011;15243;50.726;7.080;2023-07-29T14:12:54;2.35;;;1.70;;
27899;SDS011;15243;50.726;7.080;2023-07-29T14:15:21;2.90;;;1.80;;
27899;SDS011;15243;50.726;7.080;2023-07-29T14:17:48;2.22;;;2.00;;
27899;SDS011;15243;50.726;7.080;2023-07-29T14:20:15;2.50;;;1.95;;
27899;SDS011;15243;50.726;7.080;2023-07-29T14:22:44;4.00;;;2.05;;
27899;SDS011;15243;50.726;7.080;2023-07-29T14:25:11;2.75;;;1.83;;
27899;SDS011;15243;50.726;7.080;2023-07-29T14:27:38;2.30;;;1.70;;
27899;SDS011;15243;50.726;7.080;2023-07-29T14:30:05;2.22;;;1.88;;
27899;SDS011;15243;50.726;7.080;2023-07-29T14:32:33;3.45;;;2.10;;
27899;SDS011;15243;50.726;7.080;2023-07-29T14:35:00;2.55;;;1.90;;
27899;SDS011;15243;50.726;7.080;2023-07-29T14:37:30;3.17;;;1.55;;
27899;SDS011;15243;50.726;7.080;2023-07-29T14:39:58;2.70;;;1.88;;
27899;SDS011;15243;50.726;7.080;2023-07-29T14:42:27;3.08;;;1.50;;
27899;SDS011;15243;50.726;7.080;2023-07-29T14:44:54;2.15;;;1.60;;
27899;SDS011;15243;50.726;7.080;2023-07-29T14:47:21;1.92;;;1.70;;
27899;SDS011;15243;50.726;7.080;2023-07-29T14:49:49;3.50;;;1.83;;
27899;SDS011;15243;50.726;7.080;2023-07-29T14:52:16;2.00;;;1.58;;
27899;SDS011;15243;50.726;7.080;2023-07-29T14:54:43;2.38;;;1.80;;
27899;SDS011;15243;50.726;7.080;2023-07-29T14:57:10;1.85;;;1.75;;
27899;SDS011;15243;50.726;7.080;2023-07-29T14:59:37;2.95;;;2.10;;
27899;SDS011;15243;50.726;7.080;2023-07-29T15:02:05;2.40;;;1.90;;
27899;SDS011;15243;50.726;7.080;2023-07-29T15:04:32;3.08;;;1.60;;
27899;SDS011;15243;50.726;7.080;2023-07-29T15:06:59;2.35;;;1.80;;
27899;SDS011;15243;50.726;7.080;2023-07-29T15:09:26;2.95;;;1.88;;
27899;SDS011;15243;50.726;7.080;2023-07-29T15:11:54;2.30;;;1.90;;
27899;SDS011;15243;50.726;7.080;2023-07-29T15:14:24;2.63;;;1.80;;
27899;SDS011;15243;50.726;7.080;2023-07-29T15:16:51;2.40;;;1.85;;